sensor_id;sensor_type;location;lat;lon;timestamp;noise_LAeq;noise_LA_min;noise_LA_max;noise_LA01;noise_LA95
66589;Laerm;53447;49.272;11.070;2023-04-16T00:00:52;41.33;36.38;44.95;;
66589;Laerm;53447;49.272;11.070;2023-04-16T00:03:17;39.89;35.41;43.33;;
66589;Laerm;53447;49.272;11.070;2023-04-16T00:05:43;39.90;35.19;42.97;;
66589;Laerm;53447;49.272;11.070;2023-04-16T00:08:08;39.94;34.95;43.57;;
66589;Laerm;53447;49.272;11.070;2023-04-16T00:10:34;40.21;35.41;44.70;;
66589;Laerm;53447;49.272;11.070;2023-04-16T00:12:59;42.82;40.85;48.89;;
66589;Laerm;53447;49.272;11.070;2023-04-16T00:17:52;39.69;34.95;43.04;;
66589;Laerm;53447;49.272;11.070;2023-04-16T00:20:17;39.55;34.95;43.77;;
66589;Laerm;53447;49.272;11.070;2023-04-16T00:22:44;39.45;34.44;43.01;;
66589;Laerm;53447;49.272;11.070;2023-04-16T00:25:09;39.59;34.70;43.12;;
66589;Laerm;53447;49.272;11.070;2023-04-16T00:27:35;43.21;34.95;56.67;;
66589;Laerm;53447;49.272;11.070;2023-04-16T00:30:00;40.90;35.82;45.45;;
66589;Laerm;53447;49.272;11.070;2023-04-16T00:32:25;39.49;34.70;42.81;;
66589;Laerm;53447;49.272;11.070;2023-04-16T00:34:50;39.52;34.95;42.53;;
66589;Laerm;53447;49.272;11.070;2023-04-16T00:37:16;39.65;34.70;43.89;;
66589;Laerm;53447;49.272;11.070;2023-04-16T00:39:41;39.96;35.82;45.41;;
66589;Laerm;53447;49.272;11.070;2023-04-16T00:42:06;39.77;35.41;43.64;;
66589;Laerm;53447;49.272;11.070;2023-04-16T00:44:31;39.88;34.95;43.80;;
66589;Laerm;53447;49.272;11.070;2023-04-16T00:47:00;39.83;35.62;44.01;;
66589;Laerm;53447;49.272;11.070;2023-04-16T00:49:25;40.05;35.62;49.30;;
66589;Laerm;53447;49.272;11.070;2023-04-16T00:51:51;40.00;35.82;44.33;;
66589;Laerm;53447;49.272;11.070;2023-04-16T00:54:16;39.98;36.02;42.89;;
66589;Laerm;53447;49.272;11.070;2023-04-16T00:56:42;40.16;35.82;49.99;;
66589;Laerm;53447;49.272;11.070;2023-04-16T00:59:08;39.97;35.82;43.98;;
66589;Laerm;53447;49.272;11.070;2023-04-16T01:01:33;39.92;34.44;48.00;;
66589;Laerm;53447;49.272;11.070;2023-04-16T01:03:59;39.73;35.41;42.65;;
66589;Laerm;53447;49.272;11.070;2023-04-16T01:06:24;39.71;35.41;43.73;;
66589;Laerm;53447;49.272;11.070;2023-04-16T01:08:50;39.72;35.19;43.47;;
66589;Laerm;53447;49.272;11.070;2023-04-16T01:11:16;39.70;35.19;43.86;;
66589;Laerm;53447;49.272;11.070;2023-04-16T01:13:41;39.85;35.62;43.47;;
66589;Laerm;53447;49.272;11.070;2023-04-16T01:16:07;41.83;36.38;52.98;;
66589;Laerm;53447;49.272;11.070;2023-04-16T01:18:33;39.75;35.41;43.47;;
66589;Laerm;53447;49.272;11.070;2023-04-16T01:20:58;39.76;35.06;43.23;;
66589;Laerm;53447;49.272;11.070;2023-04-16T01:23:24;39.62;34.70;42.89;;
66589;Laerm;53447;49.272;11.070;2023-04-16T01:25:49;39.56;35.19;42.89;;
66589;Laerm;53447;49.272;11.070;2023-04-16T01:28:15;39.52;35.19;42.73;;
66589;Laerm;53447;49.272;11.070;2023-04-16T01:30:40;39.47;34.95;43.89;;
66589;Laerm;53447;49.272;11.070;2023-04-16T01:33:05;39.47;35.19;42.65;;
66589;Laerm;53447;49.272;11.070;2023-04-16T01:35:32;39.54;35.19;42.85;;
66589;Laerm;53447;49.272;11.070;2023-04-16T01:37:57;39.70;35.62;42.57;;
66589;Laerm;53447;49.272;11.070;2023-04-16T01:40:22;40.43;35.41;44.39;;
66589;Laerm;53447;49.272;11.070;2023-04-16T01:42:48;41.36;35.82;44.55;;
66589;Laerm;53447;49.272;11.070;2023-04-16T01:45:13;39.62;35.19;42.69;;
66589;Laerm;53447;49.272;11.070;2023-04-16T01:47:38;39.60;34.44;42.77;;
66589;Laerm;53447;49.272;11.070;2023-04-16T01:50:04;39.55;35.19;42.85;;
66589;Laerm;53447;49.272;11.070;2023-04-16T01:52:30;42.62;35.19;49.35;;
66589;Laerm;53447;49.272;11.070;2023-04-16T01:54:55;40.48;35.62;44.33;;
66589;Laerm;53447;49.272;11.070;2023-04-16T01:57:21;39.57;34.70;43.08;;
66589;Laerm;53447;49.272;11.070;2023-04-16T01:59:46;39.60;35.41;48.21;;
66589;Laerm;53447;49.272;11.070;2023-04-16T02:02:23;39.69;35.06;42.85;;
66589;Laerm;53447;49.272;11.070;2023-04-16T02:04:55;39.76;35.62;43.26;;
66589;Laerm;53447;49.272;11.070;2023-04-16T02:07:21;39.72;35.62;43.19;;
66589;Laerm;53447;49.272;11.070;2023-04-16T02:09:46;39.86;35.82;45.56;;
66589;Laerm;53447;49.272;11.070;2023-04-16T02:12:14;39.69;35.41;43.77;;
66589;Laerm;53447;49.272;11.070;2023-04-16T02:14:39;39.69;35.82;42.93;;
66589;Laerm;53447;49.272;11.070;2023-04-16T02:17:05;44.59;35.62;56.04;;
66589;Laerm;53447;49.272;11.070;2023-04-16T02:19:30;40.76;36.87;45.28;;
66589;Laerm;53447;49.272;11.070;2023-04-16T02:21:55;40.21;36.38;45.32;;
66589;Laerm;53447;49.272;11.070;2023-04-16T02:24:21;40.15;36.20;43.70;;
66589;Laerm;53447;49.272;11.070;2023-04-16T02:26:46;40.21;36.02;45.74;;
66589;Laerm;53447;49.272;11.070;2023-04-16T02:29:12;40.43;36.38;48.95;;
66589;Laerm;53447;49.272;11.070;2023-04-16T02:31:37;41.24;37.02;46.52;;
66589;Laerm;53447;49.272;11.070;2023-04-16T02:34:03;42.84;40.85;46.15;;
66589;Laerm;53447;49.272;11.070;2023-04-16T02:36:29;41.98;37.84;46.60;;
66589;Laerm;53447;49.272;11.070;2023-04-16T02:38:55;41.41;38.08;46.58;;
66589;Laerm;53447;49.272;11.070;2023-04-16T02:41:21;41.14;37.96;46.78;;
66589;Laerm;53447;49.272;11.070;2023-04-16T02:43:46;41.24;37.96;47.31;;
66589;Laerm;53447;49.272;11.070;2023-04-16T02:46:12;42.18;38.31;50.27;;
66589;Laerm;53447;49.272;11.070;2023-04-16T02:48:37;41.88;37.71;46.26;;
66589;Laerm;53447;49.272;11.070;2023-04-16T02:51:02;41.13;37.58;52.43;;
66589;Laerm;53447;49.272;11.070;2023-04-16T02:53:28;40.76;37.71;45.00;;
66589;Laerm;53447;49.272;11.070;2023-04-16T02:55:53;40.89;37.45;47.75;;
66589;Laerm;53447;49.272;11.070;2023-04-16T02:58:19;41.09;37.71;46.15;;
66589;Laerm;53447;49.272;11.070;2023-04-16T03:00:45;41.01;37.96;46.33;;
66589;Laerm;53447;49.272;11.070;2023-04-16T03:03:10;40.75;37.45;44.98;;
66589;Laerm;53447;49.272;11.070;2023-04-16T03:05:36;40.75;37.45;46.15;;
66589;Laerm;53447;49.272;11.070;2023-04-16T03:08:02;40.53;37.02;45.92;;
66589;Laerm;53447;49.272;11.070;2023-04-16T03:10:27;40.58;37.37;47.99;;
66589;Laerm;53447;49.272;11.070;2023-04-16T03:12:53;40.75;37.02;45.16;;
66589;Laerm;53447;49.272;11.070;2023-04-16T03:15:18;41.60;37.45;48.97;;
66589;Laerm;53447;49.272;11.070;2023-04-16T03:17:44;42.11;38.20;47.37;;
66589;Laerm;53447;49.272;11.070;2023-04-16T03:20:09;40.89;37.71;46.46;;
66589;Laerm;53447;49.272;11.070;2023-04-16T03:22:34;47.85;37.71;67.95;;
66589;Laerm;53447;49.272;11.070;2023-04-16T03:25:00;52.79;36.71;71.43;;
66589;Laerm;53447;49.272;11.070;2023-04-16T03:27:25;51.88;37.02;71.56;;
66589;Laerm;53447;49.272;11.070;2023-04-16T03:29:50;54.76;37.31;73.44;;
66589;Laerm;53447;49.272;11.070;2023-04-16T03:32:15;57.83;37.45;74.11;;
66589;Laerm;53447;49.272;11.070;2023-04-16T03:34:41;50.46;37.02;69.48;;
66589;Laerm;53447;49.272;11.070;2023-04-16T03:37:06;51.69;37.02;66.11;;
66589;Laerm;53447;49.272;11.070;2023-04-16T03:39:35;54.70;37.58;67.55;;
66589;Laerm;53447;49.272;11.070;2023-04-16T03:42:01;54.40;37.17;71.32;;
66589;Laerm;53447;49.272;11.070;2023-04-16T03:44:27;55.77;39.38;70.77;;
66589;Laerm;53447;49.272;11.070;2023-04-16T03:46:52;55.96;39.48;71.07;;
66589;Laerm;53447;49.272;11.070;2023-04-16T03:49:18;56.80;38.08;70.53;;
66589;Laerm;53447;49.272;11.070;2023-04-16T03:51:43;55.84;37.96;69.26;;
66589;Laerm;53447;49.272;11.070;2023-04-16T03:54:08;55.96;41.03;68.88;;
66589;Laerm;53447;49.272;11.070;2023-04-16T03:56:33;57.17;39.39;73.03;;
66589;Laerm;53447;49.272;11.070;2023-04-16T03:58:59;56.53;39.12;69.40;;
66589;Laerm;53447;49.272;11.070;2023-04-16T04:01:24;59.51;39.64;79.20;;
66589;Laerm;53447;49.272;11.070;2023-04-16T04:03:50;58.91;41.74;72.33;;
66589;Laerm;53447;49.272;11.070;2023-04-16T04:06:15;56.12;43.47;70.92;;
66589;Laerm;53447;49.272;11.070;2023-04-16T04:08:40;57.01;43.30;74.71;;
66589;Laerm;53447;49.272;11.070;2023-04-16T04:11:05;56.21;43.47;68.00;;
66589;Laerm;53447;49.272;11.070;2023-04-16T04:13:31;56.90;44.60;73.59;;
66589;Laerm;53447;49.272;11.070;2023-04-16T04:15:56;57.33;43.61;73.05;;
66589;Laerm;53447;49.272;11.070;2023-04-16T04:18:21;56.62;43.37;68.29;;
66589;Laerm;53447;49.272;11.070;2023-04-16T04:20:46;54.95;41.99;65.05;;
66589;Laerm;53447;49.272;11.070;2023-04-16T04:23:12;54.36;42.36;67.28;;
66589;Laerm;53447;49.272;11.070;2023-04-16T04:25:37;54.35;40.53;70.86;;
66589;Laerm;53447;49.272;11.070;2023-04-16T04:28:02;53.21;39.88;66.87;;
66589;Laerm;53447;49.272;11.070;2023-04-16T04:30:28;53.69;37.96;69.96;;
66589;Laerm;53447;49.272;11.070;2023-04-16T04:32:53;52.99;41.48;66.80;;
66589;Laerm;53447;49.272;11.070;2023-04-16T04:35:18;55.03;40.72;68.16;;
66589;Laerm;53447;49.272;11.070;2023-04-16T04:37:44;48.57;38.53;62.03;;
66589;Laerm;53447;49.272;11.070;2023-04-16T04:40:09;48.78;38.20;64.47;;
66589;Laerm;53447;49.272;11.070;2023-04-16T04:42:35;54.06;40.46;66.41;;
66589;Laerm;53447;49.272;11.070;2023-04-16T04:45:00;54.86;42.18;67.45;;
66589;Laerm;53447;49.272;11.070;2023-04-16T04:47:26;53.23;41.26;70.80;;
66589;Laerm;53447;49.272;11.070;2023-04-16T04:49:51;52.44;40.18;65.39;;
66589;Laerm;53447;49.272;11.070;2023-04-16T04:52:16;51.29;40.72;71.13;;
66589;Laerm;53447;49.272;11.070;2023-04-16T04:54:41;50.07;40.18;69.37;;
66589;Laerm;53447;49.272;11.070;2023-04-16T04:57:07;53.30;40.46;65.40;;
66589;Laerm;53447;49.272;11.070;2023-04-16T04:59:32;50.06;40.18;70.34;;
66589;Laerm;53447;49.272;11.070;2023-04-16T05:01:58;49.80;38.73;72.69;;
66589;Laerm;53447;49.272;11.070;2023-04-16T05:04:23;54.66;38.83;68.97;;
66589;Laerm;53447;49.272;11.070;2023-04-16T05:06:49;54.44;39.12;71.64;;
66589;Laerm;53447;49.272;11.070;2023-04-16T05:09:15;53.07;39.56;67.96;;
66589;Laerm;53447;49.272;11.070;2023-04-16T05:11:40;52.73;39.39;66.36;;
66589;Laerm;53447;49.272;11.070;2023-04-16T05:14:06;54.46;39.38;68.04;;
66589;Laerm;53447;49.272;11.070;2023-04-16T05:16:31;53.20;38.53;67.78;;
66589;Laerm;53447;49.272;11.070;2023-04-16T05:18:56;53.07;38.83;68.50;;
66589;Laerm;53447;49.272;11.070;2023-04-16T05:21:22;56.59;38.73;76.94;;
66589;Laerm;53447;49.272;11.070;2023-04-16T05:23:47;54.29;39.96;70.01;;
66589;Laerm;53447;49.272;11.070;2023-04-16T05:26:12;55.14;39.48;69.10;;
66589;Laerm;53447;49.272;11.070;2023-04-16T05:28:38;52.45;39.30;66.64;;
66589;Laerm;53447;49.272;11.070;2023-04-16T05:31:03;48.19;38.42;62.14;;
66589;Laerm;53447;49.272;11.070;2023-04-16T05:33:28;52.16;39.88;66.44;;
66589;Laerm;53447;49.272;11.070;2023-04-16T05:35:54;54.44;39.21;68.80;;
66589;Laerm;53447;49.272;11.070;2023-04-16T05:38:19;50.34;39.12;69.46;;
66589;Laerm;53447;49.272;11.070;2023-04-16T05:40:44;49.89;38.73;64.22;;
66589;Laerm;53447;49.272;11.070;2023-04-16T05:43:10;52.87;39.48;72.37;;
66589;Laerm;53447;49.272;11.070;2023-04-16T05:45:35;54.82;39.48;71.45;;
66589;Laerm;53447;49.272;11.070;2023-04-16T05:48:05;56.62;40.85;69.12;;
66589;Laerm;53447;49.272;11.070;2023-04-16T05:50:30;50.78;41.03;66.94;;
66589;Laerm;53447;49.272;11.070;2023-04-16T05:52:56;52.66;40.18;70.13;;
66589;Laerm;53447;49.272;11.070;2023-04-16T05:55:21;53.70;39.30;67.45;;
66589;Laerm;53447;49.272;11.070;2023-04-16T05:57:46;54.96;38.73;68.93;;
66589;Laerm;53447;49.272;11.070;2023-04-16T06:00:12;51.69;38.20;68.39;;
66589;Laerm;53447;49.272;11.070;2023-04-16T06:02:37;57.19;38.42;83.95;;
66589;Laerm;53447;49.272;11.070;2023-04-16T06:05:02;53.72;40.53;67.41;;
66589;Laerm;53447;49.272;11.070;2023-04-16T06:07:28;51.28;37.96;68.29;;
66589;Laerm;53447;49.272;11.070;2023-04-16T06:09:53;55.02;38.42;71.83;;
66589;Laerm;53447;49.272;11.070;2023-04-16T06:12:18;55.07;40.72;69.53;;
66589;Laerm;53447;49.272;11.070;2023-04-16T06:14:44;53.95;39.64;69.67;;
66589;Laerm;53447;49.272;11.070;2023-04-16T06:17:09;54.02;39.12;64.49;;
66589;Laerm;53447;49.272;11.070;2023-04-16T06:19:34;51.43;37.02;64.14;;
66589;Laerm;53447;49.272;11.070;2023-04-16T06:22:00;52.37;35.82;65.34;;
66589;Laerm;53447;49.272;11.070;2023-04-16T06:24:25;46.60;36.20;63.12;;
66589;Laerm;53447;49.272;11.070;2023-04-16T06:26:50;50.58;37.17;64.89;;
66589;Laerm;53447;49.272;11.070;2023-04-16T06:29:16;53.47;38.08;65.43;;
66589;Laerm;53447;49.272;11.070;2023-04-16T06:31:41;51.54;40.03;64.77;;
66589;Laerm;53447;49.272;11.070;2023-04-16T06:34:06;51.44;41.15;66.41;;
66589;Laerm;53447;49.272;11.070;2023-04-16T06:36:32;50.10;40.18;65.95;;
66589;Laerm;53447;49.272;11.070;2023-04-16T06:38:57;49.88;38.93;64.96;;
66589;Laerm;53447;49.272;11.070;2023-04-16T06:41:22;53.50;36.20;72.46;;
66589;Laerm;53447;49.272;11.070;2023-04-16T06:43:49;52.53;36.20;65.95;;
66589;Laerm;53447;49.272;11.070;2023-04-16T06:46:15;48.19;35.82;64.53;;
66589;Laerm;53447;49.272;11.070;2023-04-16T06:48:40;48.40;36.87;63.87;;
66589;Laerm;53447;49.272;11.070;2023-04-16T06:51:05;51.37;38.42;66.36;;
66589;Laerm;53447;49.272;11.070;2023-04-16T06:53:30;52.80;36.02;70.51;;
66589;Laerm;53447;49.272;11.070;2023-04-16T06:55:55;55.06;41.09;68.83;;
66589;Laerm;53447;49.272;11.070;2023-04-16T06:58:21;52.98;40.91;67.56;;
66589;Laerm;53447;49.272;11.070;2023-04-16T07:00:46;52.10;38.93;66.62;;
66589;Laerm;53447;49.272;11.070;2023-04-16T07:03:11;55.80;37.17;71.56;;
66589;Laerm;53447;49.272;11.070;2023-04-16T07:05:37;51.87;36.87;67.57;;
66589;Laerm;53447;49.272;11.070;2023-04-16T07:08:02;48.43;38.83;67.21;;
66589;Laerm;53447;49.272;11.070;2023-04-16T07:10:27;52.95;39.48;70.96;;
66589;Laerm;53447;49.272;11.070;2023-04-16T07:12:52;56.06;37.61;73.62;;
66589;Laerm;53447;49.272;11.070;2023-04-16T07:15:18;50.54;39.03;70.50;;
66589;Laerm;53447;49.272;11.070;2023-04-16T07:17:43;54.13;37.17;70.47;;
66589;Laerm;53447;49.272;11.070;2023-04-16T07:20:08;52.90;37.17;69.39;;
66589;Laerm;53447;49.272;11.070;2023-04-16T07:22:34;52.21;41.15;67.01;;
66589;Laerm;53447;49.272;11.070;2023-04-16T07:24:59;51.62;37.96;66.55;;
66589;Laerm;53447;49.272;11.070;2023-04-16T07:27:24;56.87;37.84;75.62;;
66589;Laerm;53447;49.272;11.070;2023-04-16T07:29:49;52.09;37.17;65.71;;
66589;Laerm;53447;49.272;11.070;2023-04-16T07:32:15;53.85;36.87;72.67;;
66589;Laerm;53447;49.272;11.070;2023-04-16T07:34:40;48.42;37.17;64.30;;
66589;Laerm;53447;49.272;11.070;2023-04-16T07:37:05;48.45;37.02;64.48;;
66589;Laerm;53447;49.272;11.070;2023-04-16T07:39:31;48.94;38.73;63.05;;
66589;Laerm;53447;49.272;11.070;2023-04-16T07:41:56;50.52;37.45;65.68;;
66589;Laerm;53447;49.272;11.070;2023-04-16T07:44:21;48.72;41.15;62.55;;
66589;Laerm;53447;49.272;11.070;2023-04-16T07:46:46;50.25;41.09;67.67;;
66589;Laerm;53447;49.272;11.070;2023-04-16T07:49:12;54.46;40.72;72.35;;
66589;Laerm;53447;49.272;11.070;2023-04-16T07:51:37;54.55;43.92;70.45;;
66589;Laerm;53447;49.272;11.070;2023-04-16T07:54:02;48.79;39.39;66.78;;
66589;Laerm;53447;49.272;11.070;2023-04-16T07:56:27;46.76;38.83;59.91;;
66589;Laerm;53447;49.272;11.070;2023-04-16T07:58:53;45.86;38.53;60.45;;
66589;Laerm;53447;49.272;11.070;2023-04-16T08:01:18;43.51;37.45;57.94;;
66589;Laerm;53447;49.272;11.070;2023-04-16T08:03:43;43.06;36.55;56.01;;
66589;Laerm;53447;49.272;11.070;2023-04-16T08:06:08;43.52;35.41;61.49;;
66589;Laerm;53447;49.272;11.070;2023-04-16T08:08:34;54.28;37.45;76.58;;
66589;Laerm;53447;49.272;11.070;2023-04-16T08:10:59;51.01;39.88;68.97;;
66589;Laerm;53447;49.272;11.070;2023-04-16T08:13:24;44.90;40.18;56.92;;
66589;Laerm;53447;49.272;11.070;2023-04-16T08:15:49;50.90;35.62;68.52;;
66589;Laerm;53447;49.272;11.070;2023-04-16T08:18:15;50.62;37.71;64.57;;
66589;Laerm;53447;49.272;11.070;2023-04-16T08:20:40;58.22;39.03;80.06;;
66589;Laerm;53447;49.272;11.070;2023-04-16T08:23:06;60.18;37.71;85.03;;
66589;Laerm;53447;49.272;11.070;2023-04-16T08:25:31;52.93;38.31;67.28;;
66589;Laerm;53447;49.272;11.070;2023-04-16T08:27:56;50.29;40.53;65.03;;
66589;Laerm;53447;49.272;11.070;2023-04-16T08:30:21;47.06;39.39;60.44;;
66589;Laerm;53447;49.272;11.070;2023-04-16T08:32:47;44.35;35.19;59.63;;
66589;Laerm;53447;49.272;11.070;2023-04-16T08:35:12;45.63;35.41;60.04;;
66589;Laerm;53447;49.272;11.070;2023-04-16T08:37:37;53.46;40.53;71.93;;
66589;Laerm;53447;49.272;11.070;2023-04-16T08:40:03;56.47;40.59;83.90;;
66589;Laerm;53447;49.272;11.070;2023-04-16T08:42:43;51.03;37.02;70.59;;
66589;Laerm;53447;49.272;11.070;2023-04-16T08:45:12;52.05;37.02;71.26;;
66589;Laerm;53447;49.272;11.070;2023-04-16T08:47:39;46.08;36.20;64.96;;
66589;Laerm;53447;49.272;11.070;2023-04-16T08:50:05;46.58;37.71;66.94;;
66589;Laerm;53447;49.272;11.070;2023-04-16T08:52:31;53.68;37.45;65.80;;
66589;Laerm;53447;49.272;11.070;2023-04-16T08:55:05;51.06;37.17;67.96;;
66589;Laerm;53447;49.272;11.070;2023-04-16T08:57:35;44.59;36.71;64.07;;
66589;Laerm;53447;49.272;11.070;2023-04-16T09:00:01;48.28;37.45;64.94;;
66589;Laerm;53447;49.272;11.070;2023-04-16T09:02:28;50.24;38.53;64.96;;
66589;Laerm;53447;49.272;11.070;2023-04-16T09:04:54;54.42;40.25;71.60;;
66589;Laerm;53447;49.272;11.070;2023-04-16T09:07:20;52.57;36.38;67.56;;
66589;Laerm;53447;49.272;11.070;2023-04-16T09:09:47;49.35;37.45;66.44;;
66589;Laerm;53447;49.272;11.070;2023-04-16T09:12:12;46.43;36.87;61.28;;
66589;Laerm;53447;49.272;11.070;2023-04-16T09:14:38;50.29;37.58;64.25;;
66589;Laerm;53447;49.272;11.070;2023-04-16T09:17:05;53.78;38.31;68.18;;
66589;Laerm;53447;49.272;11.070;2023-04-16T09:19:31;48.75;37.45;65.89;;
66589;Laerm;53447;49.272;11.070;2023-04-16T09:21:56;50.45;37.84;63.53;;
66589;Laerm;53447;49.272;11.070;2023-04-16T09:24:21;50.93;37.58;70.34;;
66589;Laerm;53447;49.272;11.070;2023-04-16T09:26:47;43.69;36.37;61.78;;
66589;Laerm;53447;49.272;11.070;2023-04-16T09:29:20;51.16;37.45;71.81;;
66589;Laerm;53447;49.272;11.070;2023-04-16T09:32:00;50.40;37.58;69.47;;
66589;Laerm;53447;49.272;11.070;2023-04-16T09:34:26;54.52;39.96;72.16;;
66589;Laerm;53447;49.272;11.070;2023-04-16T09:36:51;46.77;38.08;61.73;;
66589;Laerm;53447;49.272;11.070;2023-04-16T09:39:19;53.62;38.08;69.48;;
66589;Laerm;53447;49.272;11.070;2023-04-16T09:41:44;50.66;36.20;68.35;;
66589;Laerm;53447;49.272;11.070;2023-04-16T09:44:11;44.99;37.71;67.12;;
66589;Laerm;53447;49.272;11.070;2023-04-16T09:46:39;42.37;37.02;55.32;;
66589;Laerm;53447;49.272;11.070;2023-04-16T09:49:14;53.41;37.02;70.56;;
66589;Laerm;53447;49.272;11.070;2023-04-16T09:51:40;50.08;37.84;64.79;;
66589;Laerm;53447;49.272;11.070;2023-04-16T09:54:06;49.39;37.84;66.24;;
66589;Laerm;53447;49.272;11.070;2023-04-16T09:56:31;54.35;37.96;70.67;;
66589;Laerm;53447;49.272;11.070;2023-04-16T09:58:58;45.84;38.63;62.48;;
66589;Laerm;53447;49.272;11.070;2023-04-16T10:01:24;53.41;40.18;71.14;;
66589;Laerm;53447;49.272;11.070;2023-04-16T10:03:52;53.14;39.88;72.46;;
66589;Laerm;53447;49.272;11.070;2023-04-16T10:06:19;49.91;38.63;70.26;;
66589;Laerm;53447;49.272;11.070;2023-04-16T10:08:47;52.67;38.08;71.26;;
66589;Laerm;53447;49.272;11.070;2023-04-16T10:11:13;52.11;38.63;70.67;;
66589;Laerm;53447;49.272;11.070;2023-04-16T10:13:38;48.64;38.53;68.63;;
66589;Laerm;53447;49.272;11.070;2023-04-16T10:16:04;48.08;37.31;71.12;;
66589;Laerm;53447;49.272;11.070;2023-04-16T10:18:30;51.10;37.84;67.39;;
66589;Laerm;53447;49.272;11.070;2023-04-16T10:20:55;44.66;37.45;58.63;;
66589;Laerm;53447;49.272;11.070;2023-04-16T10:23:21;52.75;38.83;65.45;;
66589;Laerm;53447;49.272;11.070;2023-04-16T10:25:47;52.33;39.48;67.13;;
66589;Laerm;53447;49.272;11.070;2023-04-16T10:28:12;53.20;40.53;68.21;;
66589;Laerm;53447;49.272;11.070;2023-04-16T10:30:38;52.72;40.69;70.61;;
66589;Laerm;53447;49.272;11.070;2023-04-16T10:33:03;44.72;37.58;61.82;;
66589;Laerm;53447;49.272;11.070;2023-04-16T10:35:29;49.33;39.03;67.54;;
66589;Laerm;53447;49.272;11.070;2023-04-16T10:37:55;52.11;39.96;70.60;;
66589;Laerm;53447;49.272;11.070;2023-04-16T10:40:21;50.16;40.11;68.00;;
66589;Laerm;53447;49.272;11.070;2023-04-16T10:42:56;54.14;38.83;68.64;;
66589;Laerm;53447;49.272;11.070;2023-04-16T10:45:26;48.65;38.83;63.87;;
66589;Laerm;53447;49.272;11.070;2023-04-16T10:47:54;47.06;39.30;62.92;;
66589;Laerm;53447;49.272;11.070;2023-04-16T10:50:19;51.98;38.31;67.52;;
66589;Laerm;53447;49.272;11.070;2023-04-16T10:52:45;49.70;38.73;65.91;;
66589;Laerm;53447;49.272;11.070;2023-04-16T10:55:15;58.06;40.85;78.87;;
66589;Laerm;53447;49.272;11.070;2023-04-16T10:57:40;49.35;40.25;61.89;;
66589;Laerm;53447;49.272;11.070;2023-04-16T11:00:20;52.80;37.96;78.35;;
66589;Laerm;53447;49.272;11.070;2023-04-16T11:02:46;46.62;36.87;62.61;;
66589;Laerm;53447;49.272;11.070;2023-04-16T11:05:11;52.59;40.39;69.49;;
66589;Laerm;53447;49.272;11.070;2023-04-16T11:07:36;47.76;38.31;64.42;;
66589;Laerm;53447;49.272;11.070;2023-04-16T11:10:03;43.53;36.87;55.41;;
66589;Laerm;53447;49.272;11.070;2023-04-16T11:12:36;45.99;37.31;61.29;;
66589;Laerm;53447;49.272;11.070;2023-04-16T11:15:09;47.65;38.73;59.86;;
66589;Laerm;53447;49.272;11.070;2023-04-16T11:20:18;49.11;38.73;64.63;;
66589;Laerm;53447;49.272;11.070;2023-04-16T11:22:44;47.69;40.46;62.26;;
66589;Laerm;53447;49.272;11.070;2023-04-16T11:25:10;46.94;38.93;63.36;;
66589;Laerm;53447;49.272;11.070;2023-04-16T11:27:35;54.35;37.58;69.51;;
66589;Laerm;53447;49.272;11.070;2023-04-16T11:30:01;50.59;38.31;65.09;;
66589;Laerm;53447;49.272;11.070;2023-04-16T11:32:30;47.61;38.20;62.25;;
66589;Laerm;53447;49.272;11.070;2023-04-16T11:34:55;51.03;37.84;68.03;;
66589;Laerm;53447;49.272;11.070;2023-04-16T11:37:20;54.52;38.58;77.72;;
66589;Laerm;53447;49.272;11.070;2023-04-16T11:39:49;52.11;37.45;70.61;;
66589;Laerm;53447;49.272;11.070;2023-04-16T11:42:21;56.94;38.08;77.12;;
66589;Laerm;53447;49.272;11.070;2023-04-16T11:44:50;47.99;37.31;68.81;;
66589;Laerm;53447;49.272;11.070;2023-04-16T11:47:15;49.12;39.21;72.31;;
66589;Laerm;53447;49.272;11.070;2023-04-16T11:49:41;46.15;37.84;58.10;;
66589;Laerm;53447;49.272;11.070;2023-04-16T11:52:06;46.52;37.58;61.02;;
66589;Laerm;53447;49.272;11.070;2023-04-16T11:54:34;51.41;40.03;67.56;;
66589;Laerm;53447;49.272;11.070;2023-04-16T11:57:00;49.69;39.64;65.06;;
66589;Laerm;53447;49.272;11.070;2023-04-16T11:59:28;50.69;40.18;63.60;;
66589;Laerm;53447;49.272;11.070;2023-04-16T12:01:53;53.16;39.72;70.06;;
66589;Laerm;53447;49.272;11.070;2023-04-16T12:04:23;51.93;39.88;68.40;;
66589;Laerm;53447;49.272;11.070;2023-04-16T12:07:07;52.49;38.20;71.08;;
66589;Laerm;53447;49.272;11.070;2023-04-16T12:09:33;48.92;38.93;70.33;;
66589;Laerm;53447;49.272;11.070;2023-04-16T12:11:59;51.38;38.42;70.04;;
66589;Laerm;53447;49.272;11.070;2023-04-16T12:14:25;53.63;38.31;72.45;;
66589;Laerm;53447;49.272;11.070;2023-04-16T12:16:50;55.60;36.55;74.82;;
66589;Laerm;53447;49.272;11.070;2023-04-16T12:19:16;48.22;37.02;65.43;;
66589;Laerm;53447;49.272;11.070;2023-04-16T12:21:43;45.78;36.02;65.88;;
66589;Laerm;53447;49.272;11.070;2023-04-16T12:24:09;48.98;37.17;65.15;;
66589;Laerm;53447;49.272;11.070;2023-04-16T12:26:39;45.39;36.87;59.69;;
66589;Laerm;53447;49.272;11.070;2023-04-16T12:31:45;48.52;37.71;64.46;;
66589;Laerm;53447;49.272;11.070;2023-04-16T12:34:11;44.35;39.88;63.16;;
66589;Laerm;53447;49.272;11.070;2023-04-16T12:36:39;46.12;37.96;61.25;;
66589;Laerm;53447;49.272;11.070;2023-04-16T12:39:04;53.71;39.48;69.36;;
66589;Laerm;53447;49.272;11.070;2023-04-16T12:41:29;50.45;38.93;64.17;;
66589;Laerm;53447;49.272;11.070;2023-04-16T12:44:05;49.69;37.96;69.25;;
66589;Laerm;53447;49.272;11.070;2023-04-16T12:46:31;48.18;37.71;68.18;;
66589;Laerm;53447;49.272;11.070;2023-04-16T12:48:56;45.90;37.71;57.90;;
66589;Laerm;53447;49.272;11.070;2023-04-16T12:51:22;55.47;37.58;74.88;;
66589;Laerm;53447;49.272;11.070;2023-04-16T12:53:47;44.60;37.71;59.69;;
66589;Laerm;53447;49.272;11.070;2023-04-16T12:56:13;52.04;37.96;70.50;;
66589;Laerm;53447;49.272;11.070;2023-04-16T12:58:39;43.37;36.20;57.72;;
66589;Laerm;53447;49.272;11.070;2023-04-16T13:01:04;44.42;37.58;58.22;;
66589;Laerm;53447;49.272;11.070;2023-04-16T13:03:30;45.64;38.07;61.48;;
66589;Laerm;53447;49.272;11.070;2023-04-16T13:05:55;55.49;38.08;74.98;;
66589;Laerm;53447;49.272;11.070;2023-04-16T13:08:20;46.41;37.71;63.98;;
66589;Laerm;53447;49.272;11.070;2023-04-16T13:10:46;45.34;38.20;60.94;;
66589;Laerm;53447;49.272;11.070;2023-04-16T13:13:11;47.80;40.59;61.93;;
66589;Laerm;53447;49.272;11.070;2023-04-16T13:15:36;46.50;39.30;64.73;;
66589;Laerm;53447;49.272;11.070;2023-04-16T13:18:02;50.81;37.02;70.30;;
66589;Laerm;53447;49.272;11.070;2023-04-16T13:20:27;47.26;38.83;60.53;;
66589;Laerm;53447;49.272;11.070;2023-04-16T13:22:52;45.55;38.53;62.46;;
66589;Laerm;53447;49.272;11.070;2023-04-16T13:25:18;47.52;38.42;65.91;;
66589;Laerm;53447;49.272;11.070;2023-04-16T13:27:43;42.83;38.53;53.85;;
66589;Laerm;53447;49.272;11.070;2023-04-16T13:30:08;43.10;38.20;60.42;;
66589;Laerm;53447;49.272;11.070;2023-04-16T13:32:34;51.51;38.73;71.11;;